createdAt,value
2019-06-26T00:01:42.756Z,11.63
2019-06-26T00:04:11.933Z,3.23
2019-06-26T00:06:41.056Z,11.93
2019-06-26T00:09:10.315Z,10.27
2019-06-26T00:11:39.582Z,8.63
2019-06-26T00:14:08.847Z,17.77
2019-06-26T00:16:38.072Z,13.13
2019-06-26T00:19:59.003Z,4.80
2019-06-26T00:22:28.288Z,9.23
2019-06-26T00:24:57.455Z,11.77
2019-06-26T00:27:26.614Z,8.23
2019-06-26T00:29:55.745Z,4.63
2019-06-26T00:32:24.903Z,13.10
2019-06-26T00:34:54.144Z,10.60
2019-06-26T00:37:23.284Z,12.63
2019-06-26T00:40:12.031Z,12.33
2019-06-26T00:42:44.614Z,9.77
2019-06-26T00:45:14.371Z,11.97
2019-06-26T00:47:43.515Z,2.83
2019-06-26T00:50:13.255Z,10.93
2019-06-26T00:52:42.475Z,9.63
2019-06-26T00:55:11.591Z,7.00
2019-06-26T00:57:40.727Z,4.03
2019-06-26T01:00:10.488Z,6.50
2019-06-26T01:02:39.615Z,5.97
2019-06-26T01:05:10.624Z,8.03
2019-06-26T01:07:39.925Z,7.97
2019-06-26T01:10:10.195Z,3.60
2019-06-26T01:12:39.326Z,4.23
2019-06-26T01:15:09.542Z,6.53
2019-06-26T01:17:39.004Z,3.10
2019-06-26T01:20:08.705Z,5.37
2019-06-26T01:22:37.884Z,4.40
2019-06-26T01:25:07.225Z,3.20
2019-06-26T01:27:36.442Z,7.93
2019-06-26T01:30:06.220Z,7.93
2019-06-26T01:32:35.392Z,8.23
2019-06-26T01:35:04.827Z,10.23
2019-06-26T01:37:33.967Z,7.77
2019-06-26T01:40:03.136Z,9.43
2019-06-26T01:42:32.354Z,11.80
2019-06-26T01:45:01.491Z,10.67
2019-06-26T01:47:30.645Z,0.97
2019-06-26T01:49:59.990Z,9.17
2019-06-26T01:52:29.091Z,7.83
2019-06-26T01:54:58.265Z,2.73
2019-06-26T01:57:27.435Z,3.17
2019-06-26T01:59:56.630Z,6.83
2019-06-26T02:02:25.782Z,9.70
2019-06-26T02:05:15.363Z,5.83
2019-06-26T02:07:45.527Z,6.73
2019-06-26T02:10:15.082Z,4.10
2019-06-26T02:12:44.455Z,8.20
2019-06-26T02:15:13.837Z,7.13
2019-06-26T02:17:43.015Z,10.80
2019-06-26T02:20:12.233Z,8.40
2019-06-26T02:22:41.651Z,12.87
2019-06-26T02:25:11.216Z,11.57
2019-06-26T02:27:40.452Z,5.57
2019-06-26T02:30:31.487Z,6.83
2019-06-26T02:33:04.311Z,7.07
2019-06-26T02:35:33.396Z,7.90
2019-06-26T02:38:02.587Z,9.47
2019-06-26T02:40:31.761Z,6.50
2019-06-26T02:43:00.899Z,5.70
2019-06-26T02:45:30.121Z,7.30
2019-06-26T02:47:59.795Z,2.80
2019-06-26T02:50:28.971Z,4.07
2019-06-26T02:52:58.113Z,3.17
2019-06-26T02:55:27.314Z,7.30
2019-06-26T02:57:56.474Z,4.83
2019-06-26T03:00:25.585Z,4.97
2019-06-26T03:02:54.769Z,6.40
2019-06-26T03:05:23.918Z,3.00
2019-06-26T03:07:53.060Z,6.27
2019-06-26T03:10:22.186Z,2.97
2019-06-26T03:12:51.311Z,5.90
2019-06-26T03:15:39.692Z,4.77
2019-06-26T03:18:27.935Z,5.67
2019-06-26T03:21:16.215Z,2.73
2019-06-26T03:23:49.261Z,6.20
2019-06-26T03:26:22.191Z,3.60
2019-06-26T03:32:40.686Z,7.90
2019-06-26T03:35:28.961Z,3.57
2019-06-26T03:37:58.080Z,5.87
2019-06-26T03:40:27.261Z,6.70
2019-06-26T03:42:56.444Z,5.63
2019-06-26T03:45:26.579Z,9.07
2019-06-26T03:47:55.844Z,7.57
2019-06-26T03:50:44.221Z,7.77
2019-06-26T03:53:16.721Z,8.33
2019-06-26T03:56:04.956Z,2.67
2019-06-26T03:58:38.388Z,3.27
2019-06-26T04:01:26.633Z,7.07
2019-06-26T04:03:57.511Z,6.97
2019-06-26T04:06:26.896Z,7.47
2019-06-26T04:08:56.077Z,6.50
2019-06-26T04:11:25.241Z,2.77
2019-06-26T04:13:54.338Z,3.60
2019-06-26T04:16:23.500Z,6.40
2019-06-26T04:18:52.746Z,4.73
2019-06-26T04:21:22.090Z,10.43
2019-06-26T04:23:51.296Z,5.43
2019-06-26T04:26:20.421Z,5.57
2019-06-26T04:28:49.625Z,11.63
2019-06-26T04:31:18.779Z,6.17
2019-06-26T04:33:47.914Z,17.07
2019-06-26T04:36:17.064Z,6.87
2019-06-26T04:38:46.178Z,6.47
2019-06-26T04:41:15.385Z,4.97
2019-06-26T04:43:44.533Z,7.63
2019-06-26T04:46:13.669Z,6.57
2019-06-26T04:48:42.875Z,5.33
2019-06-26T04:51:31.130Z,4.53
2019-06-26T04:54:00.247Z,12.20
2019-06-26T04:56:29.386Z,5.30
2019-06-26T04:58:59.017Z,3.67
2019-06-26T05:01:28.209Z,6.40
2019-06-26T05:03:57.332Z,7.30
2019-06-26T05:06:26.432Z,9.83
2019-06-26T05:08:55.609Z,4.60
2019-06-26T05:11:24.729Z,10.47
2019-06-26T05:14:13.488Z,8.73
2019-06-26T05:16:42.671Z,7.20
2019-06-26T05:19:14.942Z,14.20
2019-06-26T05:21:44.041Z,6.53
2019-06-26T05:24:13.382Z,5.07
2019-06-26T05:26:42.547Z,7.33
2019-06-26T05:29:11.922Z,5.40
2019-06-26T05:31:41.146Z,6.83
2019-06-26T05:34:11.163Z,7.90
2019-06-26T05:36:40.459Z,5.87
2019-06-26T05:39:09.604Z,5.77
2019-06-26T05:41:38.761Z,6.30
2019-06-26T05:44:08.074Z,6.03
2019-06-26T05:46:37.230Z,3.43
2019-06-26T05:49:06.646Z,5.43
2019-06-26T05:51:56.051Z,6.63
2019-06-26T05:54:25.160Z,6.43
2019-06-26T05:56:54.320Z,7.67
2019-06-26T05:59:23.513Z,7.03
2019-06-26T06:01:52.631Z,3.80
2019-06-26T06:04:21.772Z,4.77
2019-06-26T06:07:32.339Z,6.73
2019-06-26T06:10:04.590Z,3.50
2019-06-26T06:12:37.098Z,5.80
2019-06-26T06:15:06.505Z,5.10
2019-06-26T06:17:54.787Z,2.93
2019-06-26T06:20:31.498Z,3.53
2019-06-26T06:23:00.626Z,3.97
2019-06-26T06:25:29.726Z,2.90
2019-06-26T06:27:58.879Z,2.03
2019-06-26T06:30:47.176Z,4.90
2019-06-26T06:33:17.060Z,3.80
2019-06-26T06:36:05.383Z,1.17
2019-06-26T06:38:35.590Z,3.93
2019-06-26T06:41:24.266Z,3.90
2019-06-26T06:43:53.523Z,3.60
2019-06-26T06:46:22.615Z,4.37
2019-06-26T06:48:51.952Z,5.80
2019-06-26T06:51:21.056Z,4.50
2019-06-26T06:53:50.295Z,4.67
2019-06-26T06:56:19.442Z,5.30
2019-06-26T06:58:48.585Z,6.33
2019-06-26T07:01:17.748Z,8.13
2019-06-26T07:03:50.321Z,5.40
2019-06-26T07:06:19.577Z,7.57
2019-06-26T07:08:48.768Z,8.03
2019-06-26T07:11:17.919Z,6.90
2019-06-26T07:13:47.223Z,6.07
2019-06-26T07:16:16.416Z,8.80
2019-06-26T07:18:45.506Z,8.27
2019-06-26T07:21:14.660Z,3.07
2019-06-26T07:23:43.763Z,8.43
2019-06-26T07:26:14.198Z,5.80
2019-06-26T07:28:43.287Z,3.33
2019-06-26T07:31:12.410Z,6.80
2019-06-26T07:33:41.525Z,4.63
2019-06-26T07:36:10.761Z,6.43
2019-06-26T07:38:39.935Z,9.60
2019-06-26T07:41:09.124Z,7.90
2019-06-26T07:43:38.254Z,6.80
2019-06-26T07:46:07.380Z,5.57
2019-06-26T07:48:36.506Z,5.10
2019-06-26T07:51:05.680Z,8.20
2019-06-26T07:53:35.303Z,7.97
2019-06-26T07:56:04.708Z,4.92
2019-06-26T07:58:33.920Z,6.93
2019-06-26T08:01:03.040Z,6.57
2019-06-26T08:03:32.254Z,4.97
2019-06-26T08:06:03.168Z,5.50
2019-06-26T08:08:32.342Z,4.23
2019-06-26T08:11:01.665Z,8.63
2019-06-26T08:13:30.798Z,3.03
2019-06-26T08:16:05.153Z,5.93
2019-06-26T08:18:34.360Z,8.63
2019-06-26T08:21:11.942Z,7.53
2019-06-26T08:23:34.511Z,10.50
2019-06-26T08:26:03.666Z,5.17
2019-06-26T08:28:32.815Z,7.10
2019-06-26T08:31:01.974Z,6.93
2019-06-26T08:33:31.127Z,7.93
2019-06-26T08:36:00.300Z,6.00
2019-06-26T08:38:29.480Z,5.50
2019-06-26T08:40:58.616Z,4.97
2019-06-26T08:43:31.083Z,6.17
2019-06-26T08:45:58.632Z,3.23
2019-06-26T08:48:39.039Z,7.83
2019-06-26T08:50:58.845Z,7.57
2019-06-26T08:53:28.032Z,5.27
2019-06-26T08:55:57.282Z,3.53
2019-06-26T08:58:26.459Z,3.00
2019-06-26T09:00:55.705Z,6.60
2019-06-26T09:03:24.860Z,7.40
2019-06-26T09:05:54.446Z,1.20
2019-06-26T09:08:24.088Z,4.33
2019-06-26T09:10:53.461Z,4.07
2019-06-26T09:13:22.655Z,4.53
2019-06-26T09:15:52.002Z,3.30
2019-06-26T09:18:35.025Z,4.97
2019-06-26T09:20:55.761Z,3.63
2019-06-26T09:23:25.262Z,4.20
2019-06-26T09:26:01.892Z,2.20
2019-06-26T09:28:36.445Z,5.43
2019-06-26T09:31:05.792Z,5.20
2019-06-26T09:33:35.571Z,6.67
2019-06-26T09:36:07.015Z,5.00
2019-06-26T09:38:36.034Z,2.80
2019-06-26T09:41:05.322Z,5.57
2019-06-26T09:43:34.592Z,3.40
2019-06-26T09:46:03.930Z,2.33
2019-06-26T09:48:33.299Z,3.47
2019-06-26T09:51:02.744Z,3.97
2019-06-26T09:53:46.012Z,3.80
2019-06-26T09:56:03.082Z,3.20
2019-06-26T09:58:32.526Z,1.87
2019-06-26T10:01:01.917Z,3.63
2019-06-26T10:03:31.242Z,4.10
2019-06-26T10:06:00.480Z,3.90
2019-06-26T10:08:33.386Z,3.13
2019-06-26T10:11:05.045Z,3.93
2019-06-26T10:13:50.785Z,3.27
2019-06-26T10:16:15.885Z,3.77
2019-06-26T10:18:45.103Z,3.90
2019-06-26T10:21:14.420Z,3.07
2019-06-26T10:23:44.048Z,3.20
2019-06-26T10:26:16.521Z,1.63
2019-06-26T10:28:45.914Z,4.30
2019-06-26T10:31:18.358Z,2.37
2019-06-26T10:33:46.169Z,1.10
2019-06-26T10:36:15.511Z,3.20
2019-06-26T10:38:44.652Z,1.60
2019-06-26T10:41:14.194Z,2.17
2019-06-26T10:43:44.554Z,3.23
2019-06-26T10:46:14.012Z,3.67
2019-06-26T10:48:46.766Z,3.80
2019-06-26T10:51:16.228Z,0.80
2019-06-26T10:54:04.693Z,1.60
2019-06-26T10:56:35.638Z,3.13
2019-06-26T10:59:06.583Z,2.00
2019-06-26T11:01:54.908Z,3.80
2019-06-26T11:04:24.139Z,3.77
2019-06-26T11:06:53.588Z,2.47
2019-06-26T11:09:22.838Z,2.17
2019-06-26T11:11:52.257Z,4.10
2019-06-26T11:15:02.996Z,4.63
2019-06-26T11:17:43.162Z,3.10
2019-06-26T11:20:11.635Z,4.50
2019-06-26T11:22:48.624Z,1.93
2019-06-26T11:25:26.349Z,3.17
2019-06-26T11:27:55.674Z,2.90
2019-06-26T11:30:53.424Z,1.23
2019-06-26T11:33:37.359Z,0.33
2019-06-26T11:36:25.726Z,2.87
2019-06-26T11:39:01.390Z,2.40
2019-06-26T11:44:52.322Z,2.27
2019-06-26T11:47:39.020Z,3.47
2019-06-26T11:50:08.618Z,3.30
2019-06-26T11:52:52.052Z,2.23
2019-06-26T11:55:33.744Z,3.00
2019-06-26T11:58:06.761Z,2.67
2019-06-26T12:00:41.718Z,1.90
2019-06-26T12:06:24.291Z,1.67
2019-06-26T12:08:58.741Z,3.30
2019-06-26T12:11:37.185Z,2.70
2019-06-26T12:14:06.550Z,2.97
2019-06-26T12:16:35.862Z,2.70
2019-06-26T12:19:05.284Z,1.67
2019-06-26T12:21:35.175Z,2.30
2019-06-26T12:24:08.531Z,1.10
2019-06-26T12:26:37.815Z,0.87
2019-06-26T12:29:09.857Z,1.57
2019-06-26T12:31:39.037Z,1.97
2019-06-26T12:34:16.601Z,3.03
2019-06-26T12:36:45.959Z,1.83
2019-06-26T12:39:15.251Z,3.53
2019-06-26T12:42:08.098Z,2.30
2019-06-26T12:44:59.844Z,1.83
2019-06-26T12:47:29.171Z,1.53
2019-06-26T12:49:58.432Z,1.47
2019-06-26T12:52:46.957Z,2.40
2019-06-26T12:55:16.523Z,2.30
2019-06-26T12:57:45.753Z,2.67
2019-06-26T13:00:37.355Z,1.20
2019-06-26T13:03:10.092Z,1.73
2019-06-26T13:05:43.351Z,2.40
2019-06-26T13:08:17.016Z,2.00
2019-06-26T13:10:50.217Z,1.87
2019-06-26T13:13:17.328Z,1.33
2019-06-26T13:15:46.645Z,1.77
2019-06-26T13:18:16.069Z,2.60
2019-06-26T13:20:53.147Z,3.33
2019-06-26T13:23:19.442Z,2.63
2019-06-26T13:26:10.657Z,2.50
2019-06-26T13:28:43.222Z,1.97
2019-06-26T13:31:31.609Z,2.10
2019-06-26T13:34:45.173Z,2.67
2019-06-26T13:37:22.015Z,3.27
2019-06-26T13:39:47.315Z,2.10
2019-06-26T13:42:48.387Z,2.83
2019-06-26T13:45:29.862Z,1.33
2019-06-26T13:48:18.484Z,2.03
2019-06-26T13:50:48.020Z,2.63
2019-06-26T13:53:36.588Z,3.23
2019-06-26T13:56:20.405Z,1.13
2019-06-26T13:59:01.269Z,2.27
2019-06-26T14:17:02.068Z,2.37
2019-06-26T14:19:34.621Z,1.60
2019-06-26T14:22:03.922Z,1.93
2019-06-26T14:24:54.227Z,1.80
2019-06-26T14:27:27.034Z,1.77
2019-06-26T14:30:16.717Z,0.70
2019-06-26T14:32:49.833Z,0.90
2019-06-26T14:35:38.328Z,1.70
2019-06-26T14:38:47.522Z,2.60
2019-06-26T14:41:17.966Z,1.47
2019-06-26T14:43:49.383Z,1.23
2019-06-26T14:55:50.757Z,2.17
2019-06-26T14:58:20.406Z,1.95
2019-06-26T15:01:08.950Z,1.52
2019-06-26T15:03:44.677Z,1.75
2019-06-26T15:06:33.126Z,2.90
2019-06-26T15:09:30.697Z,1.40
2019-06-26T15:12:10.459Z,1.98
2019-06-26T15:14:39.777Z,1.90
2019-06-26T15:17:56.186Z,1.95
2019-06-26T15:20:31.590Z,1.62
2019-06-26T15:23:15.956Z,2.00
2019-06-26T15:25:45.323Z,2.40
2019-06-26T15:28:14.584Z,2.75
2019-06-26T15:30:43.954Z,1.42
2019-06-26T15:33:13.219Z,1.73
2019-06-26T15:35:42.464Z,1.53
2019-06-26T15:38:11.682Z,0.97
2019-06-26T15:40:40.903Z,1.77
2019-06-26T15:43:10.051Z,0.90
2019-06-26T15:45:39.776Z,0.93
2019-06-26T15:48:28.337Z,1.23
2019-06-26T15:50:57.551Z,1.70
2019-06-26T15:53:26.751Z,1.23
2019-06-26T15:55:55.855Z,1.20
2019-06-26T15:58:25.019Z,1.13
2019-06-26T16:00:54.207Z,0.70
2019-06-26T16:03:42.548Z,1.87
2019-06-26T16:06:11.759Z,1.23
2019-06-26T16:08:40.888Z,0.63
2019-06-26T16:11:10.003Z,1.80
2019-06-26T16:13:39.473Z,1.33
2019-06-26T16:16:50.276Z,2.17
2019-06-26T16:19:20.099Z,1.20
2019-06-26T16:22:08.402Z,1.30
2019-06-26T16:24:37.656Z,0.80
2019-06-26T16:27:06.803Z,1.80
2019-06-26T16:29:35.970Z,0.90
2019-06-26T16:32:05.156Z,0.93
2019-06-26T16:34:34.408Z,2.37
2019-06-26T16:37:03.649Z,1.80
2019-06-26T16:39:32.805Z,1.23
2019-06-26T16:42:01.929Z,1.47
2019-06-26T16:45:12.187Z,1.50
2019-06-26T16:48:00.394Z,2.23
2019-06-26T16:50:29.667Z,1.40
2019-06-26T16:52:58.839Z,1.37
2019-06-26T16:55:28.011Z,1.23
2019-06-26T16:57:57.244Z,1.10
2019-06-26T17:00:26.464Z,1.83
2019-06-26T17:03:14.729Z,1.80
2019-06-26T17:05:43.859Z,1.40
2019-06-26T17:08:12.986Z,1.13
2019-06-26T17:10:42.119Z,0.70
2019-06-26T17:13:11.259Z,0.70
2019-06-26T17:15:40.375Z,0.93
2019-06-26T17:18:09.584Z,0.50
2019-06-26T17:20:38.744Z,1.30
2019-06-26T17:23:07.881Z,0.77
2019-06-26T17:25:37.059Z,1.53
2019-06-26T17:28:06.238Z,1.57
2019-06-26T17:30:35.342Z,1.73
2019-06-26T17:33:04.470Z,1.73
2019-06-26T17:35:33.593Z,0.57
2019-06-26T17:38:02.796Z,1.33
2019-06-26T17:40:32.048Z,0.60
2019-06-26T17:43:11.805Z,1.53
2019-06-26T17:45:32.121Z,1.00
2019-06-26T17:48:01.261Z,1.37
2019-06-26T17:50:30.412Z,0.40
2019-06-26T17:52:59.554Z,1.50
2019-06-26T17:55:28.712Z,1.50
2019-06-26T17:57:57.815Z,0.70
2019-06-26T18:00:30.394Z,1.43
2019-06-26T18:02:59.581Z,0.93
2019-06-26T18:05:28.715Z,1.10
2019-06-26T18:07:57.823Z,1.03
2019-06-26T18:10:27.065Z,1.30
2019-06-26T18:12:56.257Z,0.77
2019-06-26T18:15:25.361Z,1.77
2019-06-26T18:17:54.515Z,1.43
2019-06-26T18:20:23.670Z,0.90
2019-06-26T18:23:06.703Z,1.77
2019-06-26T18:25:23.700Z,1.73
2019-06-26T18:27:52.849Z,1.90
2019-06-26T18:30:22.901Z,1.33
2019-06-26T18:32:52.279Z,0.67
2019-06-26T18:35:40.498Z,0.47
2019-06-26T18:38:13.319Z,1.40
2019-06-26T18:40:42.471Z,1.10
2019-06-26T18:43:15.005Z,1.10
2019-06-26T18:45:42.649Z,1.30
2019-06-26T18:48:11.828Z,1.40
2019-06-26T18:50:40.935Z,1.90
2019-06-26T18:53:29.180Z,1.63
2019-06-26T18:56:17.578Z,0.83
2019-06-26T18:58:46.722Z,1.07
2019-06-26T19:01:35.019Z,1.03
2019-06-26T19:04:04.160Z,1.43
2019-06-26T19:06:33.355Z,0.53
2019-06-26T19:09:02.552Z,1.53
2019-06-26T19:11:31.907Z,1.57
2019-06-26T19:14:01.057Z,1.10
2019-06-26T19:16:30.221Z,0.67
2019-06-26T19:18:59.369Z,0.70
2019-06-26T19:21:28.592Z,0.77
2019-06-26T19:24:09.774Z,0.30
2019-06-26T19:26:28.619Z,0.97
2019-06-26T19:28:57.943Z,0.93
2019-06-26T19:31:27.095Z,1.27
2019-06-26T19:33:56.261Z,1.60
2019-06-26T19:36:28.551Z,1.37
2019-06-26T19:38:56.473Z,0.90
2019-06-26T19:41:25.661Z,1.23
2019-06-26T19:43:54.778Z,1.33
2019-06-26T19:46:23.910Z,0.60
2019-06-26T19:48:53.154Z,0.90
2019-06-26T19:51:22.340Z,1.43
2019-06-26T19:53:51.494Z,1.20
2019-06-26T19:56:20.679Z,1.97
2019-06-26T19:58:49.848Z,1.40
2019-06-26T20:01:19.049Z,1.27
2019-06-26T20:03:48.182Z,2.07
2019-06-26T20:06:17.346Z,0.97
2019-06-26T20:08:53.411Z,0.93
2019-06-26T20:11:17.511Z,1.27
2019-06-26T20:13:46.627Z,1.43
2019-06-26T20:16:16.076Z,1.50
2019-06-26T20:18:45.245Z,2.63
2019-06-26T20:21:14.380Z,0.83
2019-06-26T20:23:43.627Z,1.70
2019-06-26T20:26:12.913Z,1.10
2019-06-26T20:28:42.048Z,2.00
2019-06-26T20:31:49.377Z,1.47
2019-06-26T20:34:58.358Z,1.63
2019-06-26T20:37:30.897Z,0.93
2019-06-26T20:40:19.164Z,0.70
2019-06-26T20:42:51.351Z,1.13
2019-06-26T20:45:20.480Z,1.33
2019-06-26T20:47:49.664Z,1.30
2019-06-26T20:50:18.826Z,2.77
2019-06-26T20:52:47.985Z,1.43
2019-06-26T20:55:17.101Z,1.70
2019-06-26T20:57:46.352Z,0.70
2019-06-26T21:00:16.522Z,1.20
2019-06-26T21:02:45.674Z,0.27
2019-06-26T21:05:15.075Z,0.70
2019-06-26T21:07:44.236Z,1.43
2019-06-26T21:10:14.520Z,2.03
2019-06-26T21:12:43.695Z,1.47
2019-06-26T21:15:12.842Z,2.30
2019-06-26T21:17:41.970Z,1.07
2019-06-26T21:20:11.808Z,0.37
2019-06-26T21:22:40.959Z,1.03
2019-06-26T21:25:18.350Z,2.53
2019-06-26T21:27:40.974Z,0.87
2019-06-26T21:30:10.295Z,1.93
2019-06-26T21:32:39.434Z,1.10
2019-06-26T21:35:09.170Z,2.00
2019-06-26T21:37:38.708Z,1.40
2019-06-26T21:40:08.129Z,2.17
2019-06-26T21:42:37.276Z,1.97
2019-06-26T21:45:06.833Z,1.43
2019-06-26T21:47:35.995Z,1.13
2019-06-26T21:50:05.143Z,0.87
2019-06-26T21:52:34.325Z,0.73
2019-06-26T21:55:03.461Z,1.87
2019-06-26T21:57:32.654Z,0.73
2019-06-26T22:00:01.822Z,1.37
2019-06-26T22:02:31.107Z,3.37
2019-06-26T22:05:00.356Z,1.03
2019-06-26T22:07:29.462Z,2.37
2019-06-26T22:09:58.665Z,2.20
2019-06-26T22:12:27.780Z,1.37
2019-06-26T22:14:56.951Z,0.60
2019-06-26T22:17:26.069Z,0.50
2019-06-26T22:20:32.177Z,0.53
2019-06-26T22:25:51.019Z,2.20
2019-06-26T22:28:14.997Z,1.50
2019-06-26T22:30:44.765Z,1.77
2019-06-26T22:33:33.006Z,1.47
2019-06-26T22:36:02.175Z,2.20
2019-06-26T22:38:31.408Z,1.70
2019-06-26T22:41:00.679Z,1.87
2019-06-26T22:43:48.955Z,1.70
2019-06-26T22:46:18.179Z,1.63
2019-06-26T22:48:47.496Z,1.23
2019-06-26T22:51:16.841Z,1.37
2019-06-26T22:53:45.996Z,2.30
2019-06-26T22:56:15.316Z,0.43
2019-06-26T22:58:44.452Z,1.80
2019-06-26T23:01:13.686Z,0.60
2019-06-26T23:03:43.788Z,2.37
2019-06-26T23:06:13.084Z,1.90
2019-06-26T23:09:01.373Z,2.03
2019-06-26T23:11:30.688Z,0.50
2019-06-26T23:14:00.327Z,1.93
2019-06-26T23:16:29.466Z,0.27
2019-06-26T23:18:59.189Z,0.97
2019-06-26T23:21:28.351Z,2.43
2019-06-26T23:23:57.534Z,2.03
2019-06-26T23:26:26.695Z,1.07
2019-06-26T23:28:55.839Z,1.30
2019-06-26T23:31:25.247Z,3.23
2019-06-26T23:33:54.552Z,2.90
2019-06-26T23:36:23.994Z,2.43
2019-06-26T23:38:53.159Z,2.20
2019-06-26T23:41:22.343Z,1.77
2019-06-26T23:43:51.494Z,1.23
2019-06-26T23:46:20.651Z,2.20
2019-06-26T23:48:49.853Z,2.00
2019-06-26T23:51:18.974Z,1.90
2019-06-26T23:53:48.145Z,1.67
2019-06-26T23:56:17.276Z,1.73
2019-06-26T23:58:46.421Z,2.27
